sensor_id;sensor_type;location;lat;lon;timestamp;pressure;altitude;pressure_sealevel;temperature;humidity
76321;BME280;65132;52.088;5.402;2022-12-16T00:01:25;101115.06;;;-2.01;92.71
76321;BME280;65132;52.088;5.402;2022-12-16T00:03:54;101116.09;;;-2.05;93.12
76321;BME280;65132;52.088;5.402;2022-12-16T00:06:22;101123.53;;;-2.15;92.82
76321;BME280;65132;52.088;5.402;2022-12-16T00:08:49;101110.44;;;-2.19;93.30
76321;BME280;65132;52.088;5.402;2022-12-16T00:11:17;101109.69;;;-2.23;93.28
76321;BME280;65132;52.088;5.402;2022-12-16T00:13:44;101112.41;;;-2.24;94.03
76321;BME280;65132;52.088;5.402;2022-12-16T00:16:13;101115.72;;;-2.19;93.59
76321;BME280;65132;52.088;5.402;2022-12-16T00:18:40;101119.50;;;-2.25;93.71
76321;BME280;65132;52.088;5.402;2022-12-16T00:21:07;101119.31;;;-2.20;93.98
76321;BME280;65132;52.088;5.402;2022-12-16T00:23:34;101124.06;;;-2.28;93.52
76321;BME280;65132;52.088;5.402;2022-12-16T00:26:02;101118.81;;;-2.30;94.08
76321;BME280;65132;52.088;5.402;2022-12-16T00:28:28;101117.13;;;-2.32;94.32
76321;BME280;65132;52.088;5.402;2022-12-16T00:30:55;101126.66;;;-2.27;94.27
76321;BME280;65132;52.088;5.402;2022-12-16T00:33:24;101114.41;;;-2.31;95.25
76321;BME280;65132;52.088;5.402;2022-12-16T00:35:52;101137.94;;;-2.22;95.64
76321;BME280;65132;52.088;5.402;2022-12-16T00:38:20;101136.50;;;-2.30;95.15
76321;BME280;65132;52.088;5.402;2022-12-16T00:40:47;101138.22;;;-2.29;95.41
76321;BME280;65132;52.088;5.402;2022-12-16T00:43:14;101138.31;;;-2.09;96.94
76321;BME280;65132;52.088;5.402;2022-12-16T00:45:41;101143.69;;;-2.11;96.79
76321;BME280;65132;52.088;5.402;2022-12-16T00:48:08;101135.84;;;-2.14;96.14
76321;BME280;65132;52.088;5.402;2022-12-16T00:50:34;101139.53;;;-2.18;95.73
76321;BME280;65132;52.088;5.402;2022-12-16T00:53:01;101134.59;;;-2.27;95.46
76321;BME280;65132;52.088;5.402;2022-12-16T00:55:28;101143.44;;;-2.28;94.87
76321;BME280;65132;52.088;5.402;2022-12-16T00:57:54;101150.88;;;-2.37;94.32
76321;BME280;65132;52.088;5.402;2022-12-16T01:00:21;101141.47;;;-2.46;93.51
76321;BME280;65132;52.088;5.402;2022-12-16T01:02:50;101155.53;;;-2.44;93.53
76321;BME280;65132;52.088;5.402;2022-12-16T01:05:20;101153.78;;;-2.45;93.69
76321;BME280;65132;52.088;5.402;2022-12-16T01:07:47;101154.72;;;-2.46;93.59
76321;BME280;65132;52.088;5.402;2022-12-16T01:10:14;101151.31;;;-2.50;93.77
76321;BME280;65132;52.088;5.402;2022-12-16T01:12:40;101161.09;;;-2.52;93.71
76321;BME280;65132;52.088;5.402;2022-12-16T01:15:08;101162.94;;;-2.54;93.65
76321;BME280;65132;52.088;5.402;2022-12-16T01:17:34;101159.75;;;-2.63;93.48
76321;BME280;65132;52.088;5.402;2022-12-16T01:20:01;101166.00;;;-2.64;94.09
76321;BME280;65132;52.088;5.402;2022-12-16T01:22:30;101176.63;;;-2.66;93.88
76321;BME280;65132;52.088;5.402;2022-12-16T01:24:58;101182.78;;;-2.65;93.61
76321;BME280;65132;52.088;5.402;2022-12-16T01:27:25;101187.19;;;-2.64;93.40
76321;BME280;65132;52.088;5.402;2022-12-16T01:29:52;101188.78;;;-2.60;93.41
76321;BME280;65132;52.088;5.402;2022-12-16T01:32:21;101195.47;;;-2.50;93.89
76321;BME280;65132;52.088;5.402;2022-12-16T01:34:51;101194.28;;;-2.42;93.74
76321;BME280;65132;52.088;5.402;2022-12-16T01:37:22;101196.72;;;-2.35;93.69
76321;BME280;65132;52.088;5.402;2022-12-16T01:39:48;101199.28;;;-2.32;94.36
76321;BME280;65132;52.088;5.402;2022-12-16T01:42:18;101196.28;;;-2.23;94.85
76321;BME280;65132;52.088;5.402;2022-12-16T01:44:47;101198.59;;;-2.14;94.33
76321;BME280;65132;52.088;5.402;2022-12-16T01:47:17;101208.06;;;-2.07;94.01
76321;BME280;65132;52.088;5.402;2022-12-16T01:50:00;101210.38;;;-1.98;94.49
76321;BME280;65132;52.088;5.402;2022-12-16T01:52:33;101204.06;;;-1.94;94.76
76321;BME280;65132;52.088;5.402;2022-12-16T01:57:53;101197.41;;;-1.83;94.80
76321;BME280;65132;52.088;5.402;2022-12-16T02:00:20;101198.97;;;-1.77;94.69
76321;BME280;65132;52.088;5.402;2022-12-16T02:02:47;101199.72;;;-1.74;94.23
76321;BME280;65132;52.088;5.402;2022-12-16T02:05:15;101199.72;;;-1.74;94.48
76321;BME280;65132;52.088;5.402;2022-12-16T02:07:42;101207.56;;;-1.71;94.46
76321;BME280;65132;52.088;5.402;2022-12-16T02:10:09;101216.19;;;-1.66;94.33
76321;BME280;65132;52.088;5.402;2022-12-16T02:12:50;101216.00;;;-1.61;94.38
76321;BME280;65132;52.088;5.402;2022-12-16T02:15:41;101221.03;;;-1.54;94.90
76321;BME280;65132;52.088;5.402;2022-12-16T02:18:47;101217.44;;;-1.53;94.36
76321;BME280;65132;52.088;5.402;2022-12-16T02:27:10;101214.81;;;-1.31;95.16
76321;BME280;65132;52.088;5.402;2022-12-16T02:30:05;101231.44;;;-1.26;94.85
76321;BME280;65132;52.088;5.402;2022-12-16T02:32:42;101230.50;;;-1.25;95.38
76321;BME280;65132;52.088;5.402;2022-12-16T02:40:47;101239.41;;;-1.04;95.55
76321;BME280;65132;52.088;5.402;2022-12-16T02:46:06;101254.34;;;-1.02;95.09
76321;BME280;65132;52.088;5.402;2022-12-16T02:48:34;101251.75;;;-1.03;94.77
76321;BME280;65132;52.088;5.402;2022-12-16T02:51:00;101249.28;;;-1.08;94.53
76321;BME280;65132;52.088;5.402;2022-12-16T02:53:28;101253.59;;;-1.05;94.79
76321;BME280;65132;52.088;5.402;2022-12-16T03:01:10;101266.78;;;-1.02;94.66
76321;BME280;65132;52.088;5.402;2022-12-16T03:04:02;101260.44;;;-1.00;94.88
76321;BME280;65132;52.088;5.402;2022-12-16T03:06:32;101263.25;;;-1.03;94.81
76321;BME280;65132;52.088;5.402;2022-12-16T03:09:05;101267.31;;;-0.94;95.08
76321;BME280;65132;52.088;5.402;2022-12-16T03:11:37;101261.25;;;-0.98;94.52
76321;BME280;65132;52.088;5.402;2022-12-16T03:14:06;101279.44;;;-0.87;94.88
76321;BME280;65132;52.088;5.402;2022-12-16T03:16:34;101281.28;;;-0.89;94.95
76321;BME280;65132;52.088;5.402;2022-12-16T03:19:03;101285.41;;;-0.82;95.41
76321;BME280;65132;52.088;5.402;2022-12-16T03:21:37;101291.06;;;-0.70;96.74
76321;BME280;65132;52.088;5.402;2022-12-16T03:24:10;101302.34;;;-0.63;96.75
76321;BME280;65132;52.088;5.402;2022-12-16T03:29:10;101306.34;;;-0.53;97.09
76321;BME280;65132;52.088;5.402;2022-12-16T03:31:48;101299.66;;;-0.42;97.45
76321;BME280;65132;52.088;5.402;2022-12-16T03:34:30;101309.19;;;-0.36;97.21
76321;BME280;65132;52.088;5.402;2022-12-16T03:37:07;101308.72;;;-0.26;97.29
76321;BME280;65132;52.088;5.402;2022-12-16T03:39:38;101317.41;;;-0.22;97.59
76321;BME280;65132;52.088;5.402;2022-12-16T03:42:07;101317.31;;;-0.19;97.81
76321;BME280;65132;52.088;5.402;2022-12-16T03:44:35;101315.47;;;-0.19;97.75
76321;BME280;65132;52.088;5.402;2022-12-16T03:47:02;101324.19;;;-0.15;97.97
76321;BME280;65132;52.088;5.402;2022-12-16T03:49:28;101322.34;;;-0.13;97.84
76321;BME280;65132;52.088;5.402;2022-12-16T03:51:54;101336.38;;;-0.10;97.83
76321;BME280;65132;52.088;5.402;2022-12-16T03:54:21;101331.78;;;-0.06;98.50
76321;BME280;65132;52.088;5.402;2022-12-16T03:56:47;101322.34;;;-0.13;97.97
76321;BME280;65132;52.088;5.402;2022-12-16T03:59:14;101346.94;;;-0.08;97.74
76321;BME280;65132;52.088;5.402;2022-12-16T04:01:40;101334.47;;;-0.06;98.09
76321;BME280;65132;52.088;5.402;2022-12-16T04:04:07;101330.06;;;-0.07;98.17
76321;BME280;65132;52.088;5.402;2022-12-16T04:06:33;101334.72;;;-0.12;98.32
76321;BME280;65132;52.088;5.402;2022-12-16T04:09:00;101339.72;;;-0.05;98.00
76321;BME280;65132;52.088;5.402;2022-12-16T04:11:26;101353.81;;;-0.03;98.47
76321;BME280;65132;52.088;5.402;2022-12-16T04:13:53;101340.72;;;-0.07;98.04
76321;BME280;65132;52.088;5.402;2022-12-16T04:16:19;101347.50;;;0.00;98.28
76321;BME280;65132;52.088;5.402;2022-12-16T04:18:46;101343.25;;;-0.04;98.21
76321;BME280;65132;52.088;5.402;2022-12-16T04:21:13;101357.44;;;-0.05;97.94
76321;BME280;65132;52.088;5.402;2022-12-16T04:23:46;101345.16;;;-0.08;97.89
76321;BME280;65132;52.088;5.402;2022-12-16T04:26:13;101352.28;;;-0.08;97.56
76321;BME280;65132;52.088;5.402;2022-12-16T04:28:40;101352.28;;;-0.08;97.82
76321;BME280;65132;52.088;5.402;2022-12-16T04:31:07;101355.81;;;-0.08;98.01
76321;BME280;65132;52.088;5.402;2022-12-16T04:33:34;101353.34;;;-0.12;98.02
76321;BME280;65132;52.088;5.402;2022-12-16T04:36:01;101360.44;;;-0.13;98.15
76321;BME280;65132;52.088;5.402;2022-12-16T04:38:28;101367.56;;;-0.13;97.81
76321;BME280;65132;52.088;5.402;2022-12-16T04:40:54;101361.44;;;-0.15;97.90
76321;BME280;65132;52.088;5.402;2022-12-16T04:43:21;101370.34;;;-0.16;97.79
76321;BME280;65132;52.088;5.402;2022-12-16T04:45:47;101375.66;;;-0.16;97.94
76321;BME280;65132;52.088;5.402;2022-12-16T04:48:16;101379.13;;;-0.14;97.89
76321;BME280;65132;52.088;5.402;2022-12-16T04:50:43;101373.63;;;-0.10;97.90
76321;BME280;65132;52.088;5.402;2022-12-16T04:53:10;101385.25;;;-0.12;98.08
76321;BME280;65132;52.088;5.402;2022-12-16T04:55:37;101382.63;;;-0.14;97.55
76321;BME280;65132;52.088;5.402;2022-12-16T04:58:04;101377.72;;;-0.23;97.64
76321;BME280;65132;52.088;5.402;2022-12-16T05:00:31;101374.25;;;-0.25;97.42
76321;BME280;65132;52.088;5.402;2022-12-16T05:02:57;101379.38;;;-0.20;97.71
76321;BME280;65132;52.088;5.402;2022-12-16T05:05:24;101377.88;;;-0.27;97.38
76321;BME280;65132;52.088;5.402;2022-12-16T05:07:50;101374.19;;;-0.23;97.56
76321;BME280;65132;52.088;5.402;2022-12-16T05:10:16;101375.31;;;-0.29;97.44
76321;BME280;65132;52.088;5.402;2022-12-16T05:12:43;101374.56;;;-0.32;97.61
76321;BME280;65132;52.088;5.402;2022-12-16T05:15:12;101382.53;;;-0.32;97.59
76321;BME280;65132;52.088;5.402;2022-12-16T05:17:38;101386.34;;;-0.38;96.83
76321;BME280;65132;52.088;5.402;2022-12-16T05:20:06;101391.66;;;-0.38;96.96
76321;BME280;65132;52.088;5.402;2022-12-16T05:22:32;101387.09;;;-0.36;96.67
76321;BME280;65132;52.088;5.402;2022-12-16T05:24:59;101391.38;;;-0.32;96.99
76321;BME280;65132;52.088;5.402;2022-12-16T05:27:25;101386.75;;;-0.48;96.70
76321;BME280;65132;52.088;5.402;2022-12-16T05:29:51;101401.41;;;-0.60;96.27
76321;BME280;65132;52.088;5.402;2022-12-16T05:32:18;101393.72;;;-0.46;96.70
76321;BME280;65132;52.088;5.402;2022-12-16T05:34:44;101401.34;;;-0.58;96.72
76321;BME280;65132;52.088;5.402;2022-12-16T05:37:11;101410.06;;;-0.78;97.33
76321;BME280;65132;52.088;5.402;2022-12-16T05:39:37;101396.69;;;-0.98;96.00
76321;BME280;65132;52.088;5.402;2022-12-16T05:42:04;101405.75;;;-1.03;96.87
76321;BME280;65132;52.088;5.402;2022-12-16T05:44:31;101396.47;;;-1.15;96.47
76321;BME280;65132;52.088;5.402;2022-12-16T05:46:57;101412.59;;;-1.19;96.97
76321;BME280;65132;52.088;5.402;2022-12-16T05:49:24;101412.03;;;-1.29;97.09
76321;BME280;65132;52.088;5.402;2022-12-16T05:51:50;101419.03;;;-1.27;97.25
76321;BME280;65132;52.088;5.402;2022-12-16T05:54:17;101403.94;;;-1.25;97.30
76321;BME280;65132;52.088;5.402;2022-12-16T05:56:43;101416.19;;;-1.22;98.08
76321;BME280;65132;52.088;5.402;2022-12-16T05:59:10;101421.13;;;-1.35;97.86
76321;BME280;65132;52.088;5.402;2022-12-16T06:01:36;101421.25;;;-1.39;97.92
76321;BME280;65132;52.088;5.402;2022-12-16T06:04:03;101416.44;;;-1.53;97.46
76321;BME280;65132;52.088;5.402;2022-12-16T06:06:29;101416.56;;;-1.56;98.02
76321;BME280;65132;52.088;5.402;2022-12-16T06:08:56;101425.59;;;-1.61;97.72
76321;BME280;65132;52.088;5.402;2022-12-16T06:11:22;101433.84;;;-1.69;97.09
76321;BME280;65132;52.088;5.402;2022-12-16T06:13:49;101425.25;;;-1.77;96.97
76321;BME280;65132;52.088;5.402;2022-12-16T06:16:15;101429.53;;;-1.73;97.39
76321;BME280;65132;52.088;5.402;2022-12-16T06:18:42;101434.09;;;-1.76;97.35
76321;BME280;65132;52.088;5.402;2022-12-16T06:21:09;101441.88;;;-1.72;97.45
76321;BME280;65132;52.088;5.402;2022-12-16T06:23:35;101437.03;;;-1.85;96.93
76321;BME280;65132;52.088;5.402;2022-12-16T06:26:03;101436.38;;;-1.92;96.45
76321;BME280;65132;52.088;5.402;2022-12-16T06:28:35;101435.50;;;-1.91;96.86
76321;BME280;65132;52.088;5.402;2022-12-16T06:31:01;101445.94;;;-1.86;96.58
76321;BME280;65132;52.088;5.402;2022-12-16T06:33:27;101436.69;;;-2.01;95.33
76321;BME280;65132;52.088;5.402;2022-12-16T06:35:55;101441.44;;;-2.10;95.50
76321;BME280;65132;52.088;5.402;2022-12-16T06:38:22;101450.56;;;-2.19;95.85
76321;BME280;65132;52.088;5.402;2022-12-16T06:40:48;101439.44;;;-2.30;95.79
76321;BME280;65132;52.088;5.402;2022-12-16T06:43:15;101457.28;;;-2.35;95.98
76321;BME280;65132;52.088;5.402;2022-12-16T06:45:42;101454.81;;;-2.41;95.78
76321;BME280;65132;52.088;5.402;2022-12-16T06:48:08;101468.97;;;-2.42;95.77
76321;BME280;65132;52.088;5.402;2022-12-16T06:50:35;101459.59;;;-2.52;95.51
76321;BME280;65132;52.088;5.402;2022-12-16T06:53:05;101463.09;;;-2.52;95.46
76321;BME280;65132;52.088;5.402;2022-12-16T06:55:32;101484.53;;;-2.59;96.06
76321;BME280;65132;52.088;5.402;2022-12-16T06:57:59;101483.59;;;-2.58;95.53
76321;BME280;65132;52.088;5.402;2022-12-16T07:00:26;101478.50;;;-2.64;95.78
76321;BME280;65132;52.088;5.402;2022-12-16T07:02:52;101490.00;;;-2.65;95.50
76321;BME280;65132;52.088;5.402;2022-12-16T07:05:19;101486.66;;;-2.72;95.74
76321;BME280;65132;52.088;5.402;2022-12-16T07:07:48;101497.44;;;-2.78;95.51
76321;BME280;65132;52.088;5.402;2022-12-16T07:10:14;101506.38;;;-2.82;95.76
76321;BME280;65132;52.088;5.402;2022-12-16T07:12:41;101506.53;;;-2.86;96.05
76321;BME280;65132;52.088;5.402;2022-12-16T07:15:07;101501.38;;;-2.92;95.81
76321;BME280;65132;52.088;5.402;2022-12-16T07:17:34;101511.34;;;-3.00;95.01
76321;BME280;65132;52.088;5.402;2022-12-16T07:20:00;101518.50;;;-3.04;94.78
76321;BME280;65132;52.088;5.402;2022-12-16T07:22:27;101516.78;;;-3.05;94.51
76321;BME280;65132;52.088;5.402;2022-12-16T07:24:53;101521.28;;;-3.10;94.67
76321;BME280;65132;52.088;5.402;2022-12-16T07:27:20;101523.16;;;-3.12;94.48
76321;BME280;65132;52.088;5.402;2022-12-16T07:29:46;101527.59;;;-3.14;94.93
76321;BME280;65132;52.088;5.402;2022-12-16T07:32:17;101533.78;;;-3.15;94.90
76321;BME280;65132;52.088;5.402;2022-12-16T07:34:43;101537.34;;;-3.16;94.91
76321;BME280;65132;52.088;5.402;2022-12-16T07:37:15;101544.50;;;-3.19;94.74
76321;BME280;65132;52.088;5.402;2022-12-16T07:39:42;101540.03;;;-3.17;94.95
76321;BME280;65132;52.088;5.402;2022-12-16T07:42:09;101548.97;;;-3.21;94.40
76321;BME280;65132;52.088;5.402;2022-12-16T07:44:35;101550.63;;;-3.17;94.86
76321;BME280;65132;52.088;5.402;2022-12-16T07:47:02;101561.31;;;-3.20;95.53
76321;BME280;65132;52.088;5.402;2022-12-16T07:49:28;101545.53;;;-3.25;95.32
76321;BME280;65132;52.088;5.402;2022-12-16T07:51:56;101560.56;;;-3.25;94.87
76321;BME280;65132;52.088;5.402;2022-12-16T07:54:22;101553.44;;;-3.23;95.05
76321;BME280;65132;52.088;5.402;2022-12-16T07:56:49;101552.56;;;-3.24;94.89
76321;BME280;65132;52.088;5.402;2022-12-16T07:59:15;101549.94;;;-3.24;95.05
76321;BME280;65132;52.088;5.402;2022-12-16T08:01:42;101564.78;;;-3.20;95.17
76321;BME280;65132;52.088;5.402;2022-12-16T08:04:08;101565.53;;;-3.15;95.43
76321;BME280;65132;52.088;5.402;2022-12-16T08:06:34;101575.94;;;-3.07;95.52
76321;BME280;65132;52.088;5.402;2022-12-16T08:09:05;101579.31;;;-3.02;96.00
76321;BME280;65132;52.088;5.402;2022-12-16T08:11:32;101584.44;;;-2.95;95.28
76321;BME280;65132;52.088;5.402;2022-12-16T08:13:58;101586.75;;;-2.83;94.73
76321;BME280;65132;52.088;5.402;2022-12-16T08:16:24;101587.28;;;-2.72;93.62
76321;BME280;65132;52.088;5.402;2022-12-16T08:18:51;101589.69;;;-2.63;92.71
76321;BME280;65132;52.088;5.402;2022-12-16T08:21:17;101595.03;;;-2.64;91.80
76321;BME280;65132;52.088;5.402;2022-12-16T08:23:44;101596.94;;;-2.69;91.74
76321;BME280;65132;52.088;5.402;2022-12-16T08:26:10;101601.63;;;-2.79;90.98
76321;BME280;65132;52.088;5.402;2022-12-16T08:28:37;101608.22;;;-2.93;91.94
76321;BME280;65132;52.088;5.402;2022-12-16T08:31:03;101605.88;;;-2.73;92.31
76321;BME280;65132;52.088;5.402;2022-12-16T08:33:30;101613.34;;;-2.26;91.66
76321;BME280;65132;52.088;5.402;2022-12-16T08:35:58;101607.22;;;-1.19;88.88
76321;BME280;65132;52.088;5.402;2022-12-16T08:38:24;101606.28;;;-0.67;84.66
76321;BME280;65132;52.088;5.402;2022-12-16T08:40:53;101610.81;;;0.23;82.71
76321;BME280;65132;52.088;5.402;2022-12-16T08:43:20;101616.56;;;0.77;80.02
76321;BME280;65132;52.088;5.402;2022-12-16T08:45:47;101607.88;;;1.34;77.28
76321;BME280;65132;52.088;5.402;2022-12-16T08:48:13;101614.97;;;1.54;76.47
76321;BME280;65132;52.088;5.402;2022-12-16T08:50:40;101618.34;;;1.18;76.39
76321;BME280;65132;52.088;5.402;2022-12-16T08:53:06;101619.97;;;0.81;77.89
76321;BME280;65132;52.088;5.402;2022-12-16T08:55:32;101633.25;;;0.61;80.14
76321;BME280;65132;52.088;5.402;2022-12-16T08:57:59;101638.72;;;0.35;82.05
76321;BME280;65132;52.088;5.402;2022-12-16T09:00:25;101631.06;;;0.49;82.24
76321;BME280;65132;52.088;5.402;2022-12-16T09:02:54;101627.47;;;1.53;80.17
76321;BME280;65132;52.088;5.402;2022-12-16T09:05:21;101625.50;;;2.87;75.65
76321;BME280;65132;52.088;5.402;2022-12-16T09:07:48;101628.53;;;3.32;71.28
76321;BME280;65132;52.088;5.402;2022-12-16T09:10:14;101628.75;;;3.27;71.70
76321;BME280;65132;52.088;5.402;2022-12-16T09:12:41;101611.91;;;4.08;70.41
76321;BME280;65132;52.088;5.402;2022-12-16T09:15:07;101623.50;;;5.16;66.81
76321;BME280;65132;52.088;5.402;2022-12-16T09:17:34;101625.38;;;5.87;64.51
76321;BME280;65132;52.088;5.402;2022-12-16T09:20:00;101618.44;;;6.25;62.92
76321;BME280;65132;52.088;5.402;2022-12-16T09:22:27;101621.53;;;6.74;61.36
76321;BME280;65132;52.088;5.402;2022-12-16T09:24:53;101628.00;;;7.75;59.62
76321;BME280;65132;52.088;5.402;2022-12-16T09:27:21;101627.44;;;8.20;54.59
76321;BME280;65132;52.088;5.402;2022-12-16T09:29:47;101618.63;;;9.48;54.04
76321;BME280;65132;52.088;5.402;2022-12-16T09:32:14;101629.22;;;10.08;50.94
76321;BME280;65132;52.088;5.402;2022-12-16T09:34:40;101622.53;;;10.01;50.86
76321;BME280;65132;52.088;5.402;2022-12-16T09:37:07;101636.00;;;10.25;50.01
76321;BME280;65132;52.088;5.402;2022-12-16T09:39:34;101638.50;;;9.93;50.21
76321;BME280;65132;52.088;5.402;2022-12-16T09:42:22;101652.84;;;9.37;53.10
76321;BME280;65132;52.088;5.402;2022-12-16T09:45:02;101649.81;;;9.41;53.46
76321;BME280;65132;52.088;5.402;2022-12-16T09:47:39;101645.63;;;9.48;52.10
76321;BME280;65132;52.088;5.402;2022-12-16T09:50:22;101659.06;;;9.50;53.36
76321;BME280;65132;52.088;5.402;2022-12-16T09:52:56;101661.31;;;8.85;54.97
76321;BME280;65132;52.088;5.402;2022-12-16T09:55:25;101676.19;;;8.04;58.03
76321;BME280;65132;52.088;5.402;2022-12-16T09:57:55;101661.50;;;8.21;57.35
76321;BME280;65132;52.088;5.402;2022-12-16T10:00:24;101668.91;;;9.62;54.24
76321;BME280;65132;52.088;5.402;2022-12-16T10:02:51;101660.16;;;10.93;49.61
76321;BME280;65132;52.088;5.402;2022-12-16T10:05:28;101658.19;;;12.20;47.15
76321;BME280;65132;52.088;5.402;2022-12-16T10:08:15;101667.38;;;12.28;45.45
76321;BME280;65132;52.088;5.402;2022-12-16T10:10:51;101672.88;;;13.27;43.18
76321;BME280;65132;52.088;5.402;2022-12-16T10:21:50;101677.44;;;11.86;46.82
76321;BME280;65132;52.088;5.402;2022-12-16T10:24:29;101683.63;;;12.19;46.06
76321;BME280;65132;52.088;5.402;2022-12-16T10:27:07;101681.25;;;12.35;44.83
76321;BME280;65132;52.088;5.402;2022-12-16T10:29:38;101686.16;;;12.71;44.61
76321;BME280;65132;52.088;5.402;2022-12-16T10:32:24;101680.06;;;13.56;43.57
76321;BME280;65132;52.088;5.402;2022-12-16T10:34:53;101675.91;;;13.62;42.52
76321;BME280;65132;52.088;5.402;2022-12-16T10:37:36;101679.75;;;13.78;41.03
76321;BME280;65132;52.088;5.402;2022-12-16T10:40:05;101683.38;;;14.81;40.15
76321;BME280;65132;52.088;5.402;2022-12-16T10:42:43;101683.41;;;14.34;41.48
76321;BME280;65132;52.088;5.402;2022-12-16T10:45:19;101676.09;;;14.35;40.10
76321;BME280;65132;52.088;5.402;2022-12-16T10:47:46;101680.16;;;13.16;41.96
76321;BME280;65132;52.088;5.402;2022-12-16T10:50:14;101692.00;;;11.43;47.30
76321;BME280;65132;52.088;5.402;2022-12-16T10:53:01;101691.44;;;9.74;52.33
76321;BME280;65132;52.088;5.402;2022-12-16T10:58:50;101698.25;;;9.08;55.21
76321;BME280;65132;52.088;5.402;2022-12-16T11:01:25;101687.22;;;9.35;53.21
76321;BME280;65132;52.088;5.402;2022-12-16T11:03:52;101692.50;;;9.13;54.91
76321;BME280;65132;52.088;5.402;2022-12-16T11:06:37;101681.63;;;8.78;54.95
76321;BME280;65132;52.088;5.402;2022-12-16T11:09:20;101692.56;;;7.76;58.57
76321;BME280;65132;52.088;5.402;2022-12-16T11:11:47;101699.47;;;7.41;60.76
76321;BME280;65132;52.088;5.402;2022-12-16T11:14:23;101698.22;;;6.93;62.86
76321;BME280;65132;52.088;5.402;2022-12-16T11:17:19;101704.91;;;6.46;64.37
76321;BME280;65132;52.088;5.402;2022-12-16T11:20:06;101707.72;;;6.30;65.40
76321;BME280;65132;52.088;5.402;2022-12-16T11:22:32;101696.97;;;6.30;65.84
76321;BME280;65132;52.088;5.402;2022-12-16T11:27:37;101712.91;;;5.46;69.41
76321;BME280;65132;52.088;5.402;2022-12-16T11:32:50;101725.78;;;4.94;71.49
76321;BME280;65132;52.088;5.402;2022-12-16T11:35:21;101719.03;;;4.56;73.04
76321;BME280;65132;52.088;5.402;2022-12-16T11:37:51;101730.63;;;4.41;74.36
76321;BME280;65132;52.088;5.402;2022-12-16T11:40:18;101739.94;;;4.34;74.59
76321;BME280;65132;52.088;5.402;2022-12-16T11:42:44;101724.13;;;4.12;75.51
76321;BME280;65132;52.088;5.402;2022-12-16T11:45:13;101730.19;;;4.16;76.34
76321;BME280;65132;52.088;5.402;2022-12-16T11:47:51;101733.59;;;4.02;76.08
76321;BME280;65132;52.088;5.402;2022-12-16T11:50:20;101737.69;;;3.92;76.89
76321;BME280;65132;52.088;5.402;2022-12-16T11:52:53;101736.06;;;3.90;76.74
76321;BME280;65132;52.088;5.402;2022-12-16T11:55:26;101733.69;;;3.84;77.33
76321;BME280;65132;52.088;5.402;2022-12-16T11:58:26;101742.78;;;3.81;78.02
76321;BME280;65132;52.088;5.402;2022-12-16T12:03:42;101737.41;;;3.81;78.65
76321;BME280;65132;52.088;5.402;2022-12-16T12:08:58;101734.03;;;3.78;78.50
76321;BME280;65132;52.088;5.402;2022-12-16T12:11:30;101733.88;;;3.81;79.18
76321;BME280;65132;52.088;5.402;2022-12-16T12:14:13;101742.84;;;3.80;78.42
76321;BME280;65132;52.088;5.402;2022-12-16T12:22:29;101748.75;;;3.86;78.49
76321;BME280;65132;52.088;5.402;2022-12-16T12:25:21;101745.66;;;3.94;78.05
76321;BME280;65132;52.088;5.402;2022-12-16T12:30:42;101742.34;;;4.38;77.07
76321;BME280;65132;52.088;5.402;2022-12-16T12:35:57;101742.69;;;4.32;77.38
76321;BME280;65132;52.088;5.402;2022-12-16T12:38:30;101749.53;;;4.21;77.91
76321;BME280;65132;52.088;5.402;2022-12-16T12:41:12;101750.97;;;4.28;77.45
76321;BME280;65132;52.088;5.402;2022-12-16T12:44:41;101751.91;;;4.27;78.17
76321;BME280;65132;52.088;5.402;2022-12-16T12:46:44;101762.47;;;4.30;77.33
76321;BME280;65132;52.088;5.402;2022-12-16T12:54:52;101756.78;;;4.36;77.14
76321;BME280;65132;52.088;5.402;2022-12-16T12:57:26;101760.97;;;4.57;76.16
76321;BME280;65132;52.088;5.402;2022-12-16T12:59:58;101754.69;;;4.58;76.96
76321;BME280;65132;52.088;5.402;2022-12-16T13:02:38;101759.91;;;4.44;76.63
76321;BME280;65132;52.088;5.402;2022-12-16T13:05:11;101759.41;;;4.20;76.92
76321;BME280;65132;52.088;5.402;2022-12-16T13:07:39;101773.22;;;4.13;78.50
76321;BME280;65132;52.088;5.402;2022-12-16T13:15:54;101770.00;;;4.06;78.69
76321;BME280;65132;52.088;5.402;2022-12-16T13:18:27;101773.75;;;4.02;78.42
76321;BME280;65132;52.088;5.402;2022-12-16T13:20:56;101776.84;;;3.95;79.26
76321;BME280;65132;52.088;5.402;2022-12-16T13:23:35;101774.72;;;3.84;80.23
76321;BME280;65132;52.088;5.402;2022-12-16T13:26:05;101777.78;;;3.94;79.28
76321;BME280;65132;52.088;5.402;2022-12-16T13:28:34;101777.06;;;3.90;79.80
76321;BME280;65132;52.088;5.402;2022-12-16T13:31:03;101783.31;;;3.91;80.07
76321;BME280;65132;52.088;5.402;2022-12-16T13:33:30;101781.41;;;3.93;79.20
76321;BME280;65132;52.088;5.402;2022-12-16T13:35:58;101785.59;;;3.81;79.99
76321;BME280;65132;52.088;5.402;2022-12-16T13:38:25;101779.63;;;3.76;79.54
76321;BME280;65132;52.088;5.402;2022-12-16T13:40:58;101786.50;;;3.63;81.14
76321;BME280;65132;52.088;5.402;2022-12-16T13:48:36;101799.19;;;3.59;81.08
76321;BME280;65132;52.088;5.402;2022-12-16T13:51:03;101794.16;;;3.53;81.37
76321;BME280;65132;52.088;5.402;2022-12-16T13:56:05;101800.13;;;3.58;81.37
76321;BME280;65132;52.088;5.402;2022-12-16T13:58:49;101804.97;;;3.69;80.38
76321;BME280;65132;52.088;5.402;2022-12-16T14:01:32;101805.16;;;3.64;81.26
76321;BME280;65132;52.088;5.402;2022-12-16T14:04:01;101798.47;;;3.56;81.35
76321;BME280;65132;52.088;5.402;2022-12-16T14:06:29;101797.00;;;3.67;80.10
76321;BME280;65132;52.088;5.402;2022-12-16T14:08:57;101808.09;;;3.60;80.85
76321;BME280;65132;52.088;5.402;2022-12-16T14:11:47;101809.56;;;3.48;81.16
76321;BME280;65132;52.088;5.402;2022-12-16T14:14:25;101820.81;;;3.55;81.15
76321;BME280;65132;52.088;5.402;2022-12-16T14:16:57;101818.38;;;3.50;81.33
76321;BME280;65132;52.088;5.402;2022-12-16T14:19:49;101841.59;;;3.50;81.83
76321;BME280;65132;52.088;5.402;2022-12-16T14:25:20;101833.84;;;3.27;81.92
76321;BME280;65132;52.088;5.402;2022-12-16T14:27:53;101840.53;;;3.17;82.60